createdAt,value
2023-04-18T00:00:56.432Z,100.00
2023-04-18T00:03:25.645Z,100.00
2023-04-18T00:05:56.132Z,100.00
2023-04-18T00:08:24.770Z,100.00
2023-04-18T00:10:54.186Z,100.00
2023-04-18T00:13:23.081Z,100.00
2023-04-18T00:15:54.241Z,100.00
2023-04-18T00:18:26.719Z,100.00
2023-04-18T00:20:57.080Z,100.00
2023-04-18T00:23:28.340Z,100.00
2023-04-18T00:25:56.815Z,100.00
2023-04-18T00:28:25.744Z,100.00
2023-04-18T00:30:54.628Z,100.00
2023-04-18T00:33:23.639Z,100.00
2023-04-18T00:35:53.689Z,100.00
2023-04-18T00:38:24.207Z,100.00
2023-04-18T00:40:52.743Z,100.00
2023-04-18T00:43:24.294Z,100.00
2023-04-18T00:45:53.462Z,100.00
2023-04-18T00:48:22.438Z,100.00
2023-04-18T00:50:51.412Z,100.00
2023-04-18T00:53:20.821Z,100.00
2023-04-18T00:55:51.341Z,100.00
2023-04-18T00:58:20.259Z,100.00
2023-04-18T01:00:49.934Z,100.00
2023-04-18T01:03:19.956Z,100.00
2023-04-18T01:05:49.038Z,100.00
2023-04-18T01:08:18.627Z,100.00
2023-04-18T01:10:47.106Z,100.00
2023-04-18T01:13:20.262Z,100.00
2023-04-18T01:15:50.821Z,100.00
2023-04-18T01:18:20.973Z,100.00
2023-04-18T01:20:51.665Z,100.00
2023-04-18T01:23:22.504Z,100.00
2023-04-18T01:25:52.456Z,100.00
2023-04-18T01:28:22.886Z,100.00
2023-04-18T01:30:52.157Z,100.00
2023-04-18T01:33:21.062Z,100.00
2023-04-18T01:35:50.172Z,100.00
2023-04-18T01:38:18.932Z,100.00
2023-04-18T01:40:47.565Z,100.00
2023-04-18T01:43:18.522Z,100.00
2023-04-18T01:45:47.352Z,100.00
2023-04-18T01:48:16.229Z,100.00
2023-04-18T01:50:45.046Z,100.00
2023-04-18T01:53:13.907Z,100.00
2023-04-18T01:55:45.521Z,100.00
2023-04-18T01:58:15.791Z,100.00
2023-04-18T02:00:46.148Z,100.00
2023-04-18T02:03:14.872Z,100.00
2023-04-18T02:05:43.890Z,100.00
2023-04-18T02:08:12.789Z,100.00
2023-04-18T02:10:42.749Z,100.00
2023-04-18T02:13:11.633Z,100.00
2023-04-18T02:15:40.533Z,100.00
2023-04-18T02:18:11.670Z,100.00
2023-04-18T02:20:41.952Z,100.00
2023-04-18T02:23:10.994Z,100.00
2023-04-18T02:25:39.525Z,100.00
2023-04-18T02:28:08.356Z,100.00
2023-04-18T02:30:37.222Z,100.00
2023-04-18T02:33:06.474Z,100.00
2023-04-18T02:35:37.378Z,100.00
2023-04-18T02:38:06.560Z,100.00
2023-04-18T02:40:35.044Z,100.00
2023-04-18T02:43:04.690Z,100.00
2023-04-18T02:45:33.989Z,100.00
2023-04-18T02:48:03.023Z,100.00
2023-04-18T02:50:33.200Z,100.00
2023-04-18T02:53:03.552Z,100.00
2023-04-18T02:55:44.553Z,100.00
2023-04-18T02:58:13.958Z,100.00
2023-04-18T03:01:01.725Z,100.00
2023-04-18T03:04:06.839Z,100.00
2023-04-18T03:06:43.766Z,100.00
2023-04-18T03:09:14.530Z,100.00
2023-04-18T03:11:48.584Z,100.00
2023-04-18T03:14:21.117Z,100.00
2023-04-18T03:16:55.158Z,100.00
2023-04-18T03:19:29.249Z,100.00
2023-04-18T03:22:01.518Z,100.00
2023-04-18T03:24:32.311Z,100.00
2023-04-18T03:27:04.807Z,100.00
2023-04-18T03:29:33.815Z,100.00
2023-04-18T03:32:03.101Z,100.00
2023-04-18T03:34:31.679Z,100.00
2023-04-18T03:37:01.298Z,100.00
2023-04-18T03:39:33.678Z,100.00
2023-04-18T03:42:03.350Z,100.00
2023-04-18T03:44:32.383Z,100.00
2023-04-18T03:47:01.375Z,100.00
2023-04-18T03:49:32.179Z,100.00
2023-04-18T03:52:01.190Z,100.00
2023-04-18T03:54:30.086Z,100.00
2023-04-18T03:57:00.980Z,100.00
2023-04-18T03:59:30.480Z,100.00
2023-04-18T04:01:59.597Z,100.00
2023-04-18T04:04:28.345Z,100.00
2023-04-18T04:06:58.502Z,100.00
2023-04-18T04:09:27.600Z,100.00
2023-04-18T04:11:56.618Z,100.00
2023-04-18T04:14:27.325Z,100.00
2023-04-18T04:16:55.991Z,100.00
2023-04-18T04:19:25.381Z,100.00
2023-04-18T04:22:05.220Z,100.00
2023-04-18T04:24:35.523Z,100.00
2023-04-18T04:27:05.266Z,100.00
2023-04-18T04:29:39.540Z,100.00
2023-04-18T04:32:09.415Z,100.00
2023-04-18T04:34:41.551Z,100.00
2023-04-18T04:37:14.097Z,100.00
2023-04-18T04:40:01.007Z,100.00
2023-04-18T04:42:49.263Z,100.00
2023-04-18T04:45:25.919Z,100.00
2023-04-18T04:47:54.587Z,100.00
2023-04-18T04:50:23.862Z,100.00
2023-04-18T04:52:52.430Z,100.00
2023-04-18T04:55:21.783Z,100.00
2023-04-18T04:57:52.264Z,100.00
2023-04-18T05:00:41.664Z,100.00
2023-04-18T05:03:10.909Z,100.00
2023-04-18T05:05:41.364Z,100.00
2023-04-18T05:08:10.001Z,100.00
2023-04-18T05:10:38.574Z,100.00
2023-04-18T05:13:07.439Z,100.00
2023-04-18T05:15:36.317Z,100.00
2023-04-18T05:18:06.904Z,100.00
2023-04-18T05:20:35.956Z,100.00
2023-04-18T05:23:05.116Z,100.00
2023-04-18T05:25:33.763Z,100.00
2023-04-18T05:28:04.655Z,100.00
2023-04-18T05:30:33.495Z,100.00
2023-04-18T05:33:03.168Z,100.00
2023-04-18T05:35:33.577Z,100.00
2023-04-18T05:38:02.199Z,100.00
2023-04-18T05:40:30.831Z,100.00
2023-04-18T05:42:59.866Z,100.00
2023-04-18T05:45:28.714Z,100.00
2023-04-18T05:47:57.716Z,100.00
2023-04-18T05:50:26.733Z,100.00
2023-04-18T05:52:59.298Z,100.00
2023-04-18T05:55:28.362Z,100.00
2023-04-18T05:57:57.431Z,100.00
2023-04-18T06:00:26.374Z,100.00
2023-04-18T06:02:55.466Z,100.00
2023-04-18T06:05:24.788Z,100.00
2023-04-18T06:07:53.456Z,100.00
2023-04-18T06:10:23.832Z,100.00
2023-04-18T06:12:52.444Z,100.00
2023-04-18T06:15:21.400Z,100.00
2023-04-18T06:17:50.264Z,100.00
2023-04-18T06:20:19.131Z,100.00
2023-04-18T06:22:47.628Z,100.00
2023-04-18T06:25:16.833Z,100.00
2023-04-18T06:27:47.306Z,100.00
2023-04-18T06:30:16.113Z,100.00
2023-04-18T06:32:45.011Z,100.00
2023-04-18T06:35:13.994Z,100.00
2023-04-18T06:37:44.875Z,100.00
2023-04-18T06:40:14.367Z,100.00
2023-04-18T06:42:43.849Z,100.00
2023-04-18T06:45:14.612Z,100.00
2023-04-18T06:47:43.615Z,100.00
2023-04-18T06:50:12.732Z,100.00
2023-04-18T06:52:44.519Z,100.00
2023-04-18T06:55:14.064Z,100.00
2023-04-18T06:57:43.352Z,100.00
2023-04-18T07:00:14.848Z,100.00
2023-04-18T07:02:44.110Z,100.00
2023-04-18T07:05:13.068Z,100.00
2023-04-18T07:07:41.651Z,100.00
2023-04-18T07:10:11.874Z,100.00
2023-04-18T07:12:40.723Z,100.00
2023-04-18T07:15:10.949Z,100.00
2023-04-18T07:17:41.480Z,100.00
2023-04-18T07:20:13.078Z,100.00
2023-04-18T07:22:42.828Z,100.00
2023-04-18T07:25:11.956Z,100.00
2023-04-18T07:27:40.867Z,100.00
2023-04-18T07:30:10.821Z,100.00
2023-04-18T07:32:41.363Z,100.00
2023-04-18T07:35:11.197Z,100.00
2023-04-18T07:37:39.772Z,100.00
2023-04-18T07:40:09.726Z,100.00
2023-04-18T07:42:38.684Z,100.00
2023-04-18T07:45:08.741Z,100.00
2023-04-18T07:47:37.689Z,100.00
2023-04-18T07:50:10.384Z,100.00
2023-04-18T07:52:39.608Z,100.00
2023-04-18T07:55:09.411Z,100.00
2023-04-18T07:57:38.280Z,100.00
2023-04-18T08:00:09.600Z,100.00
2023-04-18T08:02:44.711Z,100.00
2023-04-18T08:05:15.370Z,100.00
2023-04-18T08:07:43.881Z,100.00
2023-04-18T08:10:13.084Z,100.00
2023-04-18T08:12:42.169Z,100.00
2023-04-18T08:15:11.827Z,100.00
2023-04-18T08:17:42.876Z,100.00
2023-04-18T08:20:13.118Z,100.00
2023-04-18T08:23:01.277Z,100.00
2023-04-18T08:25:33.263Z,100.00
2023-04-18T08:28:02.194Z,100.00
2023-04-18T08:30:31.527Z,100.00
2023-04-18T08:33:01.047Z,99.68
2023-04-18T08:35:30.152Z,95.24
2023-04-18T08:38:00.741Z,97.12
2023-04-18T08:40:30.454Z,92.93
2023-04-18T08:42:59.734Z,92.52
2023-04-18T08:45:28.957Z,90.13
2023-04-18T08:48:01.597Z,90.83
2023-04-18T08:50:30.653Z,93.16
2023-04-18T08:53:01.424Z,94.61
2023-04-18T08:55:30.455Z,95.05
2023-04-18T08:57:59.768Z,97.90
2023-04-18T09:00:29.376Z,91.98
2023-04-18T09:02:58.600Z,88.04
2023-04-18T09:05:28.420Z,87.95
2023-04-18T09:07:57.529Z,83.43
2023-04-18T09:10:29.394Z,79.40
2023-04-18T09:12:59.183Z,71.47
2023-04-18T09:15:29.421Z,70.55
2023-04-18T09:17:59.584Z,63.46
2023-04-18T09:20:38.180Z,53.40
2023-04-18T09:23:11.033Z,47.68
2023-04-18T09:25:47.031Z,42.76
2023-04-18T09:28:27.135Z,43.56
2023-04-18T09:30:56.881Z,44.65
2023-04-18T09:33:29.443Z,48.94
2023-04-18T09:36:00.344Z,46.40
2023-04-18T09:38:41.322Z,44.38
2023-04-18T09:41:12.598Z,45.30
2023-04-18T09:43:41.611Z,42.92
2023-04-18T09:46:11.070Z,42.45
2023-04-18T09:48:40.905Z,43.23
2023-04-18T09:51:11.240Z,46.27
2023-04-18T09:53:41.116Z,47.26
2023-04-18T09:56:16.321Z,41.07
2023-04-18T09:58:45.589Z,41.84
2023-04-18T10:01:14.877Z,44.32
2023-04-18T10:03:49.208Z,44.50
2023-04-18T10:06:18.494Z,42.91
2023-04-18T10:08:48.159Z,38.72
2023-04-18T10:11:19.284Z,40.12
2023-04-18T10:13:49.655Z,40.72
2023-04-18T10:16:18.633Z,37.25
2023-04-18T10:18:47.686Z,35.33
2023-04-18T10:21:16.819Z,37.51
2023-04-18T10:23:48.959Z,40.80
2023-04-18T10:26:19.289Z,41.95
2023-04-18T10:28:51.375Z,46.70
2023-04-18T10:31:20.578Z,52.14
2023-04-18T10:34:03.139Z,53.92
2023-04-18T10:36:33.665Z,60.06
2023-04-18T10:39:04.330Z,65.58
2023-04-18T10:41:35.206Z,69.18
2023-04-18T10:44:22.409Z,75.84
2023-04-18T10:47:27.696Z,83.89
2023-04-18T10:49:59.084Z,90.32
2023-04-18T10:52:29.074Z,96.13
2023-04-18T10:55:15.951Z,94.37
2023-04-18T10:57:47.938Z,84.80
2023-04-18T11:00:18.712Z,82.84
2023-04-18T11:02:53.795Z,84.40
2023-04-18T11:05:25.503Z,80.38
2023-04-18T11:07:54.157Z,78.47
2023-04-18T11:10:23.991Z,78.44
2023-04-18T11:12:55.800Z,79.61
2023-04-18T11:15:25.694Z,80.07
2023-04-18T11:17:59.004Z,80.49
2023-04-18T11:20:28.357Z,81.58
2023-04-18T11:22:58.107Z,80.61
2023-04-18T11:25:28.959Z,80.99
2023-04-18T11:28:01.867Z,82.08
2023-04-18T11:30:37.983Z,82.20
2023-04-18T11:33:08.980Z,82.26
2023-04-18T11:35:39.725Z,83.02
2023-04-18T11:38:10.190Z,80.35
2023-04-18T11:40:38.619Z,79.50
2023-04-18T11:43:09.151Z,84.24
2023-04-18T11:45:38.448Z,87.13
2023-04-18T11:48:08.448Z,90.80
2023-04-18T11:50:38.561Z,95.65
2023-04-18T11:53:07.511Z,96.54
2023-04-18T11:55:35.940Z,99.99
2023-04-18T11:58:06.123Z,98.12
2023-04-18T12:00:37.284Z,93.24
2023-04-18T12:03:12.685Z,92.42
2023-04-18T12:05:43.581Z,91.07
2023-04-18T12:08:14.306Z,93.50
2023-04-18T12:10:47.464Z,96.57
2023-04-18T12:13:16.570Z,96.71
2023-04-18T12:15:48.371Z,98.60
2023-04-18T12:18:19.884Z,100.00
2023-04-18T12:20:52.357Z,100.00
2023-04-18T12:23:31.564Z,100.00
2023-04-18T12:26:02.123Z,99.23
2023-04-18T12:28:31.611Z,96.93
2023-04-18T12:31:02.123Z,96.19
2023-04-18T12:33:31.924Z,96.15
2023-04-18T12:36:01.214Z,99.52
2023-04-18T12:38:30.162Z,98.12
2023-04-18T12:40:59.019Z,96.78
2023-04-18T12:43:27.847Z,95.33
2023-04-18T12:45:56.853Z,91.51
2023-04-18T12:48:27.278Z,90.16
2023-04-18T12:50:56.251Z,85.87
2023-04-18T12:53:25.122Z,83.77
2023-04-18T12:55:53.680Z,76.13
2023-04-18T12:58:22.673Z,72.37
2023-04-18T13:00:51.530Z,70.46
2023-04-18T13:03:21.535Z,71.35
2023-04-18T13:05:54.191Z,75.81
2023-04-18T13:08:23.610Z,80.91
2023-04-18T13:10:52.219Z,84.15
2023-04-18T13:13:21.147Z,86.46
2023-04-18T13:15:50.170Z,86.71
2023-04-18T13:18:19.201Z,87.81
2023-04-18T13:20:49.609Z,88.42
2023-04-18T13:23:19.975Z,86.79
2023-04-18T13:25:48.604Z,85.65
2023-04-18T13:28:17.667Z,83.54
2023-04-18T13:30:46.606Z,84.63
2023-04-18T13:33:15.532Z,80.69
2023-04-18T13:35:44.381Z,79.40
2023-04-18T13:38:13.326Z,79.34
2023-04-18T13:40:43.255Z,80.84
2023-04-18T13:43:13.162Z,80.78
2023-04-18T13:45:42.228Z,83.83
2023-04-18T13:48:11.218Z,86.28
2023-04-18T13:50:40.172Z,87.54
2023-04-18T13:53:09.093Z,86.95
2023-04-18T13:55:38.037Z,85.61
2023-04-18T13:58:09.827Z,87.15
2023-04-18T14:00:38.951Z,86.88
2023-04-18T14:03:07.938Z,84.58
2023-04-18T14:05:37.173Z,85.62
2023-04-18T14:08:06.521Z,84.82
2023-04-18T14:10:35.123Z,85.29
2023-04-18T14:13:04.117Z,85.50
2023-04-18T14:15:34.494Z,84.91
2023-04-18T14:18:03.483Z,86.90
2023-04-18T14:20:34.756Z,89.18
2023-04-18T14:23:03.771Z,88.75
2023-04-18T14:25:32.306Z,90.21
2023-04-18T14:28:09.576Z,90.87
2023-04-18T14:30:41.113Z,90.25
2023-04-18T14:33:10.536Z,89.71
2023-04-18T14:35:40.038Z,91.75
2023-04-18T14:38:09.138Z,92.63
2023-04-18T14:40:37.703Z,90.74
2023-04-18T14:43:06.712Z,90.16
2023-04-18T14:45:35.788Z,88.28
2023-04-18T14:48:08.842Z,88.71
2023-04-18T14:50:39.306Z,87.01
2023-04-18T14:53:08.797Z,86.08
2023-04-18T14:55:37.645Z,86.97
2023-04-18T14:58:06.709Z,85.96
2023-04-18T15:00:35.632Z,87.26
2023-04-18T15:03:08.872Z,88.96
2023-04-18T15:05:43.041Z,89.07
2023-04-18T15:08:12.101Z,89.26
2023-04-18T15:10:42.419Z,91.67
2023-04-18T15:13:12.364Z,90.88
2023-04-18T15:15:41.327Z,90.76
2023-04-18T15:18:13.874Z,89.83
2023-04-18T15:20:42.767Z,91.73
2023-04-18T15:23:13.857Z,89.45
2023-04-18T15:25:42.823Z,90.74
2023-04-18T15:28:11.658Z,90.81
2023-04-18T15:30:40.855Z,90.91
2023-04-18T15:33:11.461Z,91.67
2023-04-18T15:35:40.380Z,90.02
2023-04-18T15:38:09.224Z,90.65
2023-04-18T15:40:37.767Z,89.54
2023-04-18T15:43:06.718Z,88.65
2023-04-18T15:45:35.756Z,88.32
2023-04-18T15:48:04.848Z,86.83
2023-04-18T15:50:35.640Z,87.33
2023-04-18T15:53:04.510Z,86.47
2023-04-18T15:55:33.074Z,87.25
2023-04-18T15:58:02.032Z,87.03
2023-04-18T16:00:30.973Z,87.31
2023-04-18T16:02:59.935Z,88.07
2023-04-18T16:05:35.261Z,88.56
2023-04-18T16:08:03.882Z,89.34
2023-04-18T16:10:32.560Z,90.71
2023-04-18T16:13:02.492Z,90.06
2023-04-18T16:15:32.417Z,89.83
2023-04-18T16:18:01.501Z,90.45
2023-04-18T16:20:30.573Z,91.39
2023-04-18T16:23:01.385Z,91.88
2023-04-18T16:25:29.893Z,92.46
2023-04-18T16:27:58.878Z,93.48
2023-04-18T16:30:28.013Z,93.72
2023-04-18T16:32:57.212Z,93.31
2023-04-18T16:35:26.382Z,93.75
2023-04-18T16:37:54.984Z,93.17
2023-04-18T16:40:30.639Z,93.27
2023-04-18T16:42:59.675Z,94.18
2023-04-18T16:45:28.720Z,95.82
2023-04-18T16:47:58.300Z,96.18
2023-04-18T16:50:27.616Z,95.76
2023-04-18T16:52:56.188Z,96.34
2023-04-18T16:55:27.533Z,97.59
2023-04-18T16:57:56.630Z,98.09
2023-04-18T17:00:25.588Z,98.35
2023-04-18T17:02:56.001Z,98.60
2023-04-18T17:05:46.679Z,99.48
2023-04-18T17:08:15.237Z,100.00
2023-04-18T17:10:45.544Z,100.00
2023-04-18T17:13:14.259Z,100.00
2023-04-18T17:15:43.252Z,100.00
2023-04-18T17:18:12.490Z,100.00
2023-04-18T17:20:41.540Z,100.00
2023-04-18T17:23:10.665Z,100.00
2023-04-18T17:25:39.612Z,100.00
2023-04-18T17:28:09.991Z,100.00
2023-04-18T17:30:41.536Z,100.00
2023-04-18T17:33:11.701Z,100.00
2023-04-18T17:35:42.223Z,100.00
2023-04-18T17:38:11.690Z,100.00
2023-04-18T17:40:40.720Z,100.00
2023-04-18T17:43:12.333Z,100.00
2023-04-18T17:45:41.364Z,100.00
2023-04-18T17:48:10.504Z,100.00
2023-04-18T17:50:39.624Z,100.00
2023-04-18T17:53:08.523Z,100.00
2023-04-18T17:55:37.052Z,100.00
2023-04-18T17:58:06.386Z,100.00
2023-04-18T18:00:36.765Z,100.00
2023-04-18T18:03:05.823Z,100.00
2023-04-18T18:05:34.828Z,100.00
2023-04-18T18:08:03.748Z,100.00
2023-04-18T18:10:33.340Z,100.00
2023-04-18T18:13:02.248Z,100.00
2023-04-18T18:15:31.383Z,100.00
2023-04-18T18:18:02.792Z,100.00
2023-04-18T18:20:32.143Z,100.00
2023-04-18T18:23:01.814Z,100.00
2023-04-18T18:25:30.553Z,100.00
2023-04-18T18:27:59.811Z,100.00
2023-04-18T18:30:28.965Z,100.00
2023-04-18T18:32:58.021Z,100.00
2023-04-18T18:35:29.194Z,100.00
2023-04-18T18:37:57.931Z,100.00
2023-04-18T18:40:26.719Z,100.00
2023-04-18T18:42:56.810Z,100.00
2023-04-18T18:45:25.921Z,100.00
2023-04-18T18:47:54.968Z,100.00
2023-04-18T18:50:23.913Z,100.00
2023-04-18T18:52:53.789Z,100.00
2023-04-18T18:55:22.466Z,100.00
2023-04-18T18:57:51.509Z,100.00
2023-04-18T19:00:20.579Z,100.00
2023-04-18T19:02:49.861Z,100.00
2023-04-18T19:05:18.913Z,100.00
2023-04-18T19:07:47.422Z,100.00
2023-04-18T19:10:17.844Z,100.00
2023-04-18T19:12:46.466Z,100.00
2023-04-18T19:15:15.272Z,100.00
2023-04-18T19:17:44.288Z,100.00
2023-04-18T19:20:13.160Z,100.00
2023-04-18T19:22:43.110Z,100.00
2023-04-18T19:25:12.192Z,100.00
2023-04-18T19:27:44.474Z,100.00
2023-04-18T19:30:13.617Z,100.00
2023-04-18T19:32:42.629Z,100.00
2023-04-18T19:35:13.294Z,100.00
2023-04-18T19:37:41.575Z,100.00
2023-04-18T19:40:12.396Z,100.00
2023-04-18T19:42:42.704Z,100.00
2023-04-18T19:45:13.789Z,100.00
2023-04-18T19:47:44.355Z,100.00
2023-04-18T19:50:13.433Z,100.00
2023-04-18T19:52:42.332Z,100.00
2023-04-18T19:55:11.840Z,100.00
2023-04-18T19:57:42.457Z,100.00
2023-04-18T20:00:12.842Z,100.00
2023-04-18T20:02:42.650Z,100.00
2023-04-18T20:05:12.964Z,100.00
2023-04-18T20:07:41.932Z,100.00
2023-04-18T20:10:11.486Z,100.00
2023-04-18T20:12:40.447Z,100.00
2023-04-18T20:15:11.820Z,100.00
2023-04-18T20:17:40.736Z,100.00
2023-04-18T20:20:11.136Z,100.00
2023-04-18T20:22:40.478Z,100.00
2023-04-18T20:25:10.671Z,100.00
2023-04-18T20:27:39.698Z,100.00
2023-04-18T20:30:10.880Z,100.00
2023-04-18T20:32:39.794Z,100.00
2023-04-18T20:35:09.687Z,100.00
2023-04-18T20:37:39.171Z,100.00
2023-04-18T20:40:11.177Z,100.00
2023-04-18T20:42:40.151Z,100.00
2023-04-18T20:45:11.840Z,100.00
2023-04-18T20:47:41.339Z,100.00
2023-04-18T20:50:11.276Z,100.00
2023-04-18T20:52:42.851Z,100.00
2023-04-18T20:55:12.021Z,100.00
2023-04-18T20:57:40.820Z,100.00
2023-04-18T21:00:14.257Z,100.00
2023-04-18T21:02:43.286Z,100.00
2023-04-18T21:05:12.287Z,100.00
2023-04-18T21:07:41.103Z,100.00
2023-04-18T21:10:11.207Z,100.00
2023-04-18T21:12:40.923Z,100.00
2023-04-18T21:15:12.253Z,100.00
2023-04-18T21:17:41.111Z,100.00
2023-04-18T21:20:10.838Z,100.00
2023-04-18T21:22:39.299Z,100.00
2023-04-18T21:25:09.234Z,100.00
2023-04-18T21:27:38.102Z,100.00
2023-04-18T21:30:08.330Z,100.00
2023-04-18T21:32:38.431Z,100.00
2023-04-18T21:35:07.900Z,100.00
2023-04-18T21:37:36.391Z,100.00
2023-04-18T21:40:06.017Z,100.00
2023-04-18T21:42:35.572Z,100.00
2023-04-18T21:45:05.074Z,100.00
2023-04-18T21:47:34.140Z,100.00
2023-04-18T21:50:04.805Z,100.00
2023-04-18T21:52:33.372Z,100.00
2023-04-18T21:55:02.309Z,100.00
2023-04-18T21:57:31.223Z,100.00
2023-04-18T22:00:00.014Z,100.00
2023-04-18T22:02:29.390Z,100.00
2023-04-18T22:04:58.340Z,100.00
2023-04-18T22:07:29.660Z,100.00
2023-04-18T22:09:59.923Z,100.00
2023-04-18T22:12:28.805Z,100.00
2023-04-18T22:14:58.205Z,100.00
2023-04-18T22:17:27.302Z,100.00
2023-04-18T22:19:56.241Z,100.00
2023-04-18T22:22:25.108Z,100.00
2023-04-18T22:24:55.367Z,100.00
2023-04-18T22:27:23.992Z,100.00
2023-04-18T22:29:52.824Z,100.00
2023-04-18T22:32:21.941Z,100.00
2023-04-18T22:34:50.829Z,100.00
2023-04-18T22:37:19.674Z,100.00
2023-04-18T22:39:48.548Z,100.00
2023-04-18T22:42:18.757Z,100.00
2023-04-18T22:44:47.412Z,100.00
2023-04-18T22:47:16.165Z,100.00
2023-04-18T22:49:44.648Z,100.00
2023-04-18T22:52:14.338Z,100.00
2023-04-18T22:54:43.314Z,100.00
2023-04-18T22:57:12.160Z,100.00
2023-04-18T22:59:42.536Z,100.00
2023-04-18T23:02:12.828Z,100.00
2023-04-18T23:04:42.398Z,100.00
2023-04-18T23:07:11.262Z,100.00
2023-04-18T23:09:40.168Z,100.00
2023-04-18T23:12:09.093Z,100.00
2023-04-18T23:14:37.935Z,100.00
2023-04-18T23:17:08.216Z,100.00
2023-04-18T23:19:36.780Z,100.00
2023-04-18T23:22:05.636Z,100.00
2023-04-18T23:24:34.625Z,100.00
2023-04-18T23:27:03.658Z,100.00
2023-04-18T23:29:32.524Z,100.00
2023-04-18T23:32:01.413Z,100.00
2023-04-18T23:34:31.356Z,100.00
2023-04-18T23:37:00.297Z,100.00
2023-04-18T23:39:29.139Z,100.00
2023-04-18T23:41:57.992Z,100.00
2023-04-18T23:44:26.913Z,100.00
2023-04-18T23:46:55.377Z,100.00
2023-04-18T23:49:24.276Z,100.00
2023-04-18T23:51:54.538Z,100.00
2023-04-18T23:54:23.371Z,100.00
2023-04-18T23:56:52.207Z,100.00
2023-04-18T23:59:21.078Z,100.00
